Time;durP1;ratioP1;P1;durP2;ratioP2;P2;SDS_P1;SDS_P2;PMS_P1;PMS_P2;Temp;Humidity;BMP_temperature;BMP_pressure;BME280_temperature;BME280_humidity;BME280_pressure;Samples;Min_cycle;Max_cycle;Signal;HPM_P1;HPM_P2
2022/08/29 00:07:32;;;;;;;1999.90;999.90;;;17.50;98.70;;;;;;6704988;88;20323;-79
2022/08/29 00:17:32;;;;;;;1999.90;999.90;;;17.30;99.60;;;;;;6698742;88;20217;-79
2022/08/29 00:27:34;;;;;;;1999.90;999.90;;;16.90;99.90;;;;;;6703646;88;20194;-78
2022/08/29 00:37:34;;;;;;;1999.90;999.90;;;16.70;99.90;;;;;;6703868;88;20296;-81
2022/08/29 00:47:39;;;;;;;1999.90;999.90;;;16.50;99.90;;;;;;6703419;88;20783;-79
2022/08/29 00:57:45;;;;;;;1999.90;999.90;;;16.40;99.90;;;;;;6703394;88;20506;-77
2022/08/29 01:07:46;;;;;;;1999.90;999.90;;;16.30;99.90;;;;;;6703672;88;20174;-78
2022/08/29 01:17:48;;;;;;;1999.90;999.90;;;16.10;99.90;;;;;;6704990;88;20336;-78
2022/08/29 01:27:58;;;;;;;1999.90;999.90;;;16.20;99.90;;;;;;6703744;88;20417;-78
2022/08/29 01:37:58;;;;;;;1999.90;999.90;;;16.00;99.90;;;;;;6703568;88;20231;-78
2022/08/29 01:47:59;;;;;;;1999.90;999.90;;;15.90;99.90;;;;;;6704254;88;20240;-80
2022/08/29 01:57:59;;;;;;;1999.90;999.90;;;15.60;99.90;;;;;;6704135;88;20189;-81
2022/08/29 02:08:00;;;;;;;1999.90;999.90;;;15.60;99.90;;;;;;6705231;88;20670;-79
2022/08/29 02:18:00;;;;;;;1999.90;999.90;;;15.50;99.90;;;;;;6701298;88;20214;-79
2022/08/29 02:28:02;;;;;;;1999.90;999.90;;;15.50;99.90;;;;;;6705640;88;20226;-81
2022/08/29 02:38:02;;;;;;;1999.90;999.90;;;15.60;99.90;;;;;;6714745;88;20202;-79
2022/08/29 02:48:03;;;;;;;1999.90;999.90;;;15.60;99.90;;;;;;6701880;88;20209;-81
2022/08/29 02:58:05;;;;;;;1999.90;999.90;;;15.50;99.90;;;;;;6704575;88;20715;-81
2022/08/29 03:08:09;;;;;;;1999.90;999.90;;;15.50;99.90;;;;;;6700831;88;20178;-80
2022/08/29 03:18:10;;;;;;;1999.90;999.90;;;15.30;99.90;;;;;;6701081;88;20181;-79
2022/08/29 03:28:11;;;;;;;1999.90;999.90;;;15.10;99.90;;;;;;6702573;88;20215;-81
2022/08/29 03:38:11;;;;;;;1999.90;999.90;;;15.10;99.90;;;;;;6701703;88;20274;-77
2022/08/29 03:48:12;;;;;;;1999.90;999.90;;;15.00;99.90;;;;;;6704125;88;20186;-77
2022/08/29 03:58:12;;;;;;;1999.90;999.90;;;14.70;99.90;;;;;;6703253;88;20210;-77
2022/08/29 04:08:13;;;;;;;1999.90;999.90;;;14.70;99.90;;;;;;6688083;88;20213;-77
2022/08/29 04:18:13;;;;;;;1999.90;999.90;;;14.70;99.90;;;;;;6686376;88;20199;-77
2022/08/29 04:39:16;;;;;;;1999.90;999.90;;;14.70;99.90;;;;;;6746709;87;20204;-78
2022/08/29 04:49:17;;;;;;;1999.90;999.90;;;14.60;99.90;;;;;;6770090;87;20203;-78
2022/08/29 04:59:18;;;;;;;1999.90;999.90;;;14.40;99.90;;;;;;6766393;87;20204;-78
2022/08/29 05:09:19;;;;;;;1999.90;999.90;;;14.40;99.90;;;;;;6749496;87;20214;-78
2022/08/29 05:19:19;;;;;;;1999.90;999.90;;;14.50;99.90;;;;;;6769854;87;20196;-77
2022/08/29 05:29:20;;;;;;;1999.90;999.90;;;14.50;99.90;;;;;;6769559;87;20222;-79
2022/08/29 05:39:21;;;;;;;1999.90;999.90;;;14.30;99.90;;;;;;6765309;87;20176;-78
2022/08/29 05:49:21;;;;;;;1999.90;999.90;;;14.50;99.90;;;;;;6781897;87;20221;-78
2022/08/29 05:59:22;;;;;;;1999.90;999.90;;;14.60;99.90;;;;;;6780366;87;20173;-79
2022/08/29 06:09:22;;;;;;;1999.90;999.90;;;15.10;99.90;;;;;;6779290;87;20226;-77
2022/08/29 06:19:23;;;;;;;1999.90;999.90;;;15.40;99.90;;;;;;6781586;87;20186;-77
2022/08/29 06:29:25;;;;;;;1999.90;999.90;;;15.70;99.90;;;;;;6783162;87;20201;-77
2022/08/29 06:39:26;;;;;;;1999.90;999.90;;;15.80;99.90;;;;;;6767615;87;20387;-78
2022/08/29 06:49:27;;;;;;;1999.90;999.90;;;16.50;99.90;;;;;;6766709;87;20344;-78
2022/08/29 06:59:27;;;;;;;1999.90;999.90;;;17.10;99.90;;;;;;6772962;87;20221;-78
2022/08/29 07:09:30;;;;;;;1999.90;999.90;;;17.10;99.90;;;;;;6772607;87;20213;-78
2022/08/29 07:19:30;;;;;;;1999.90;999.90;;;17.40;99.90;;;;;;6767393;87;20189;-79
2022/08/29 07:29:31;;;;;;;1999.90;999.90;;;17.20;99.90;;;;;;6763095;87;20269;-77
2022/08/29 07:39:32;;;;;;;1999.90;999.90;;;18.30;99.90;;;;;;6756861;87;20185;-77
2022/08/29 07:49:32;;;;;;;1999.90;999.90;;;18.90;99.90;;;;;;6762652;87;20217;-77
2022/08/29 07:59:33;;;;;;;1999.90;999.90;;;20.10;99.90;;;;;;6765544;87;20228;-78
2022/08/29 08:09:34;;;;;;;1999.90;999.90;;;20.40;99.90;;;;;;6775619;87;20311;-78
2022/08/29 08:19:34;;;;;;;1999.90;999.90;;;20.90;99.80;;;;;;6770333;87;20540;-76
2022/08/29 08:29:35;;;;;;;1999.90;999.90;;;21.60;99.30;;;;;;6766469;87;20187;-76
2022/08/29 08:39:36;;;;;;;1999.90;999.90;;;22.20;97.10;;;;;;6770993;87;20818;-78
2022/08/29 08:49:46;;;;;;;1999.90;999.90;;;22.20;97.50;;;;;;6765396;87;20676;-77
2022/08/29 08:59:55;;;;;;;1999.90;999.90;;;22.90;95.90;;;;;;6765022;87;20305;-76
2022/08/29 09:10:20;;;;;;;1999.90;999.90;;;24.30;94.20;;;;;;6773926;87;20228;-77
2022/08/29 09:20:27;;;;;;;1999.90;999.90;;;25.10;92.10;;;;;;6771075;87;20320;-77
2022/08/29 09:30:30;;;;;;;1999.90;999.90;;;25.50;91.30;;;;;;6761382;87;20675;-76
2022/08/29 09:40:45;;;;;;;1999.90;999.90;;;24.80;89.90;;;;;;6760375;87;20214;-75
2022/08/29 09:50:46;;;;;;;1999.90;999.90;;;25.10;90.00;;;;;;6760932;87;20262;-77
2022/08/29 10:01:18;;;;;;;1999.90;999.90;;;26.10;87.70;;;;;;6762608;87;20180;-77
2022/08/29 10:11:27;;;;;;;1999.90;999.90;;;27.00;84.50;;;;;;6760297;87;20339;-77
2022/08/29 10:21:32;;;;;;;1999.90;999.90;;;28.10;82.20;;;;;;6761900;87;20196;-78
2022/08/29 10:31:41;;;;;;;1999.90;999.90;;;28.60;80.30;;;;;;6752785;77;20255;-76
2022/08/29 10:41:47;;;;;;;1999.90;999.90;;;27.10;81.70;;;;;;6725616;88;20193;-77
2022/08/29 10:52:02;;;;;;;1999.90;999.90;;;29.20;78.00;;;;;;6729485;88;20205;-75
2022/08/29 11:02:18;;;;;;;1999.90;999.90;;;29.30;75.70;;;;;;6727206;88;20216;-77
2022/08/29 11:12:43;;;;;;;1999.90;999.90;;;29.70;76.10;;;;;;6725797;88;21005;-77
2022/08/29 11:23:11;;;;;;;1999.90;999.90;;;29.60;74.90;;;;;;6716974;88;20208;-77
2022/08/29 11:33:30;;;;;;;1999.90;999.90;;;30.70;73.50;;;;;;6638276;88;20278;-77
2022/08/29 11:43:39;;;;;;;1999.90;999.90;;;31.50;72.80;;;;;;6642661;88;20192;-77
2022/08/29 11:53:39;;;;;;;1999.90;999.90;;;30.80;71.30;;;;;;6661552;88;20218;-77
2022/08/29 12:03:39;;;;;;;1999.90;999.90;;;31.90;70.60;;;;;;6658815;88;20188;-78
2022/08/29 12:13:47;;;;;;;1999.90;999.90;;;31.90;68.60;;;;;;6659255;88;20280;-77
2022/08/29 12:23:47;;;;;;;1999.90;999.90;;;31.10;68.10;;;;;;6647552;88;20315;-76
2022/08/29 12:34:13;;;;;;;1999.90;999.90;;;31.30;68.10;;;;;;6671002;88;20218;-75
2022/08/29 12:44:17;;;;;;;1999.90;999.90;;;32.40;67.60;;;;;;6645122;88;20203;-76
2022/08/29 12:54:35;;;;;;;1999.90;999.90;;;32.40;66.60;;;;;;6654105;88;20217;-76
2022/08/29 13:04:42;;;;;;;1999.90;999.90;;;31.90;66.70;;;;;;6650016;88;20269;-77
2022/08/29 13:15:00;;;;;;;1999.90;999.90;;;31.50;65.60;;;;;;6653474;88;20216;-77
2022/08/29 13:25:03;;;;;;;1999.90;999.90;;;31.90;65.10;;;;;;6673534;88;20205;-76
2022/08/29 13:35:30;;;;;;;1999.90;999.90;;;32.10;65.50;;;;;;6728888;88;20712;-74
2022/08/29 13:45:32;;;;;;;1999.90;999.90;;;31.90;64.40;;;;;;6730001;88;20773;-77
2022/08/29 13:55:33;;;;;;;1999.90;999.90;;;31.90;65.20;;;;;;6736467;88;20196;-76
2022/08/29 14:05:35;;;;;;;1999.90;999.90;;;31.50;64.30;;;;;;6728927;88;20201;-77
2022/08/29 14:15:37;;;;;;;1999.90;999.90;;;30.80;64.70;;;;;;6733349;88;20188;-76
2022/08/29 14:25:37;;;;;;;1999.90;999.90;;;30.50;65.00;;;;;;6704255;88;20620;-76
2022/08/29 14:35:38;;;;;;;1999.90;999.90;;;30.70;64.60;;;;;;6659958;88;20244;-77
2022/08/29 14:45:38;;;;;;;1999.90;999.90;;;30.50;64.40;;;;;;6662283;88;20801;-77
2022/08/29 14:55:39;;;;;;;1999.90;999.90;;;30.90;64.00;;;;;;6648053;88;20221;-77
2022/08/29 15:05:42;;;;;;;;;;;30.20;64.20;;;;;;6646694;88;20195;-76
2022/08/29 15:15:43;;;;;;;1999.90;999.90;;;31.20;63.20;;;;;;6657062;88;20114;-76
2022/08/29 15:25:43;;;;;;;1999.90;999.90;;;31.50;62.20;;;;;;6699459;88;20224;-77
2022/08/29 15:35:44;;;;;;;1999.90;999.90;;;30.80;62.10;;;;;;6735903;88;20629;-77
2022/08/29 15:45:44;;;;;;;1999.90;999.90;;;29.90;63.70;;;;;;6735429;88;20185;-76
2022/08/29 15:55:45;;;;;;;1999.90;999.90;;;29.40;64.10;;;;;;6732703;88;20639;-76
2022/08/29 16:05:45;;;;;;;1999.90;999.90;;;29.50;64.40;;;;;;6734909;88;20182;-77
2022/08/29 16:15:47;;;;;;;1999.90;999.90;;;29.20;64.60;;;;;;6731424;88;20358;-77
2022/08/29 16:25:48;;;;;;;1999.90;999.90;;;28.80;65.50;;;;;;6731123;88;20273;-76
2022/08/29 16:35:49;;;;;;;1999.90;999.90;;;28.70;66.50;;;;;;6727613;88;20296;-77
2022/08/29 16:45:49;;;;;;;1999.90;999.90;;;28.70;66.00;;;;;;6737605;88;20176;-78
2022/08/29 16:55:50;;;;;;;1999.90;999.90;;;27.90;67.70;;;;;;6741084;88;20254;-77
2022/08/29 17:05:50;;;;;;;1999.90;999.90;;;27.80;67.10;;;;;;6733167;88;20197;-77
2022/08/29 17:25:52;;;;;;;1999.90;999.90;;;26.90;69.60;;;;;;6732087;88;20226;-76
2022/08/29 17:35:53;;;;;;;1999.90;999.90;;;26.30;70.20;;;;;;6731665;88;20683;-76
2022/08/29 17:45:56;;;;;;;1999.90;999.90;;;26.10;70.40;;;;;;6732236;88;20198;-76
2022/08/29 17:55:57;;;;;;;1999.90;999.90;;;25.60;70.60;;;;;;6733024;88;20810;-76
2022/08/29 18:05:57;;;;;;;1999.90;999.90;;;25.20;71.30;;;;;;6729676;88;20424;-76
2022/08/29 18:15:58;;;;;;;1999.90;999.90;;;24.90;71.90;;;;;;6722195;88;20205;-75
2022/08/29 18:25:59;;;;;;;1999.90;999.90;;;24.70;72.20;;;;;;6728811;88;20225;-74
2022/08/29 18:36:00;;;;;;;1999.90;999.90;;;24.40;72.60;;;;;;6728164;88;20362;-78
2022/08/29 18:46:02;;;;;;;1999.90;999.90;;;24.20;73.60;;;;;;6723901;88;20326;-77
2022/08/29 18:56:03;;;;;;;1999.90;999.90;;;24.00;73.70;;;;;;6722219;88;20173;-76
2022/08/29 19:06:03;;;;;;;1999.90;999.90;;;23.80;74.40;;;;;;6725091;88;21108;-76
2022/08/29 19:16:08;;;;;;;1999.90;999.90;;;23.50;75.20;;;;;;6731875;88;20246;-78
2022/08/29 19:26:18;;;;;;;1999.90;999.90;;;23.10;76.00;;;;;;6731199;88;20580;-77
2022/08/29 19:36:19;;;;;;;1999.90;999.90;;;22.80;76.20;;;;;;6735193;88;20606;-77
2022/08/29 19:46:22;;;;;;;1999.90;999.90;;;22.50;76.70;;;;;;6733693;88;20242;-77
2022/08/29 19:56:23;;;;;;;1999.90;999.90;;;22.30;77.30;;;;;;6726188;88;20796;-77
2022/08/29 20:06:23;;;;;;;1999.90;999.90;;;22.20;77.60;;;;;;6732441;88;20607;-78
2022/08/29 20:16:28;;;;;;;1999.90;999.90;;;22.10;78.10;;;;;;6722803;88;20563;-77
2022/08/29 20:26:31;;;;;;;1999.90;999.90;;;22.00;78.80;;;;;;6740252;88;20548;-77
2022/08/29 20:46:51;;;;;;;1999.90;999.90;;;21.80;79.40;;;;;;6741706;88;20188;-76
2022/08/29 20:56:52;;;;;;;1999.90;999.90;;;21.60;79.80;;;;;;6733280;88;20182;-77
2022/08/29 21:06:55;;;;;;;1999.90;999.90;;;21.70;80.00;;;;;;6734013;88;20186;-76
2022/08/29 21:16:56;;;;;;;1999.90;999.90;;;21.60;80.40;;;;;;6737085;87;20203;-77
2022/08/29 21:26:57;;;;;;;1999.90;999.90;;;21.60;80.80;;;;;;6740477;88;20214;-78
2022/08/29 21:36:57;;;;;;;1999.90;999.90;;;21.50;81.20;;;;;;6735199;87;20284;-77
2022/08/29 21:46:59;;;;;;;1999.90;999.90;;;21.50;82.10;;;;;;6729162;88;20747;-78
2022/08/29 21:56:59;;;;;;;1999.90;999.90;;;21.50;82.70;;;;;;6736765;88;20677;-78
2022/08/29 22:07:00;;;;;;;1999.90;999.90;;;21.50;84.50;;;;;;6733546;88;20200;-77
2022/08/29 22:17:01;;;;;;;1999.90;999.90;;;21.50;85.10;;;;;;6735712;88;20288;-77
2022/08/29 22:37:05;;;;;;;1999.90;999.90;;;21.40;85.40;;;;;;6667933;89;20379;-79
2022/08/29 22:47:06;;;;;;;1999.90;999.90;;;21.30;88.50;;;;;;6666322;89;20264;-79
2022/08/29 22:57:09;;;;;;;1999.90;999.90;;;21.20;89.40;;;;;;6665997;89;20806;-79
2022/08/29 23:07:11;;;;;;;1999.90;999.90;;;21.00;90.00;;;;;;6666595;89;20649;-79
2022/08/29 23:17:12;;;;;;;1999.90;999.90;;;20.90;90.50;;;;;;6666396;89;20312;-79
2022/08/29 23:27:12;;;;;;;1999.90;999.90;;;20.60;90.60;;;;;;6666796;88;20187;-80
2022/08/29 23:37:13;;;;;;;1999.90;999.90;;;20.50;92.00;;;;;;6668339;89;20183;-79
2022/08/29 23:47:14;;;;;;;1999.90;999.90;;;20.20;94.20;;;;;;6669068;89;20265;-79
2022/08/29 23:57:14;;;;;;;1999.90;999.90;;;20.00;95.50;;;;;;6669003;89;20223;-79
